Time;durP1;ratioP1;P1;durP2;ratioP2;P2;SDS_P1;SDS_P2;PMS_P1;PMS_P2;Temp;Humidity;BMP_temperature;BMP_pressure;BME280_temperature;BME280_humidity;BME280_pressure;Samples;Min_cycle;Max_cycle;Signal;HPM_P1;HPM_P2
2023/07/16 00:02:17;;;;;;;3.08;2.00;;;22.10;99.90;;;;;;4995613;28;20183;-93
2023/07/16 00:04:43;;;;;;;3.10;2.25;;;22.10;99.90;;;;;;4995780;28;20238;-94
2023/07/16 00:07:10;;;;;;;3.95;2.33;;;22.00;99.90;;;;;;4995003;28;20183;-95
2023/07/16 00:09:36;;;;;;;3.88;2.40;;;21.90;99.90;;;;;;4997367;28;20215;-93
2023/07/16 00:12:02;;;;;;;2.90;2.13;;;21.90;99.90;;;;;;4996602;28;20172;-94
2023/07/16 00:14:28;;;;;;;5.65;2.50;;;21.90;99.90;;;;;;4979962;28;20204;-92
2023/07/16 00:16:54;;;;;;;4.13;2.42;;;21.80;99.90;;;;;;4997470;28;20694;-94
2023/07/16 00:19:20;;;;;;;4.65;2.20;;;21.90;99.90;;;;;;4995782;28;20219;-96
2023/07/16 00:21:45;;;;;;;5.28;2.13;;;21.80;99.90;;;;;;4994826;28;20318;-93
2023/07/16 00:24:11;;;;;;;3.00;2.60;;;21.80;99.90;;;;;;4997328;28;20195;-93
2023/07/16 00:26:37;;;;;;;2.85;2.40;;;21.80;99.90;;;;;;4999754;28;20194;-93
2023/07/16 00:29:03;;;;;;;3.55;2.30;;;21.70;99.90;;;;;;4999800;28;20734;-94
2023/07/16 00:31:31;;;;;;;2.60;2.40;;;21.70;99.90;;;;;;5000098;28;20175;-95
2023/07/16 00:33:57;;;;;;;3.25;2.63;;;21.70;99.90;;;;;;5000104;28;20633;-95
2023/07/16 00:36:23;;;;;;;3.55;2.47;;;21.70;99.90;;;;;;4999497;28;20180;-93
2023/07/16 00:38:50;;;;;;;4.35;2.60;;;21.70;99.90;;;;;;4999439;28;20176;-95
2023/07/16 00:41:16;;;;;;;5.20;2.33;;;21.70;99.90;;;;;;5000020;28;20238;-95
2023/07/16 00:43:42;;;;;;;4.10;2.53;;;21.70;99.90;;;;;;4999368;28;20322;-93
2023/07/16 00:46:10;;;;;;;2.75;2.20;;;21.60;99.90;;;;;;4998690;28;20316;-95
2023/07/16 00:48:35;;;;;;;6.25;2.50;;;21.70;99.90;;;;;;4983597;28;20234;-92
2023/07/16 00:51:04;;;;;;;3.85;2.30;;;21.60;99.90;;;;;;4983304;28;20711;-93
2023/07/16 00:53:30;;;;;;;3.30;2.30;;;21.70;99.90;;;;;;4983427;28;20172;-93
2023/07/16 00:55:56;;;;;;;2.75;2.30;;;21.70;99.90;;;;;;4984453;28;20191;-95
2023/07/16 00:58:22;;;;;;;4.68;2.40;;;21.70;99.90;;;;;;4984600;28;20234;-93
2023/07/16 01:00:48;;;;;;;5.95;2.47;;;21.80;99.90;;;;;;4999000;28;20179;-95
2023/07/16 01:03:14;;;;;;;2.10;1.90;;;21.70;99.90;;;;;;4999104;28;20214;-91
2023/07/16 01:05:47;;;;;;;3.13;2.20;;;21.70;99.90;;;;;;4982889;28;20706;-96
2023/07/16 01:08:18;;;;;;;3.58;2.30;;;21.70;99.90;;;;;;4982314;28;20180;-93
2023/07/16 01:10:44;;;;;;;2.42;2.00;;;21.70;99.90;;;;;;4982935;28;20210;-94
2023/07/16 01:13:10;;;;;;;2.42;1.98;;;21.60;99.90;;;;;;4998069;28;20168;-94
2023/07/16 01:15:36;;;;;;;3.15;2.00;;;21.50;99.90;;;;;;4980982;28;20283;-95
2023/07/16 01:18:03;;;;;;;3.70;1.90;;;21.50;99.90;;;;;;4996795;28;20254;-94
2023/07/16 01:20:29;;;;;;;4.70;2.20;;;21.40;99.90;;;;;;4983346;28;20203;-95
2023/07/16 01:23:36;;;;;;;3.08;1.73;;;21.40;99.90;;;;;;4998549;28;20234;-95
2023/07/16 01:26:14;;;;;;;3.25;1.90;;;21.40;99.90;;;;;;4969730;28;20211;-94
2023/07/16 01:29:04;;;;;;;2.47;2.00;;;21.40;99.90;;;;;;4979732;28;20172;-95
2023/07/16 01:31:31;;;;;;;4.25;2.10;;;21.30;99.90;;;;;;4981181;28;20195;-95
2023/07/16 01:33:58;;;;;;;3.90;2.00;;;21.20;99.90;;;;;;4996086;28;20172;-93
2023/07/16 01:36:24;;;;;;;2.90;1.95;;;21.10;99.90;;;;;;4979238;28;20172;-95
2023/07/16 01:38:50;;;;;;;3.75;1.90;;;21.10;99.90;;;;;;4980306;28;20251;-94
2023/07/16 01:41:17;;;;;;;7.00;2.10;;;21.10;99.90;;;;;;4979611;28;20164;-93
2023/07/16 01:43:43;;;;;;;4.93;2.40;;;21.10;99.90;;;;;;4996961;28;20172;-94
2023/07/16 01:46:08;;;;;;;2.35;1.95;;;21.00;99.90;;;;;;4997524;28;20207;-95
2023/07/16 01:48:36;;;;;;;3.40;2.25;;;21.00;99.90;;;;;;5000780;28;20195;-92
2023/07/16 01:51:03;;;;;;;4.07;2.40;;;21.00;99.90;;;;;;4985102;28;20238;-96
2023/07/16 01:53:31;;;;;;;6.82;2.38;;;21.00;99.90;;;;;;5001815;28;20175;-94
2023/07/16 01:55:57;;;;;;;5.18;2.55;;;20.90;99.90;;;;;;4984804;28;20219;-94
2023/07/16 01:58:23;;;;;;;4.10;2.20;;;20.90;99.90;;;;;;5000475;28;20202;-92
2023/07/16 02:00:50;;;;;;;5.38;2.42;;;20.70;99.90;;;;;;5000645;28;20632;-95
2023/07/16 02:03:17;;;;;;;7.88;2.80;;;20.60;99.90;;;;;;5001161;28;20188;-94
2023/07/16 02:05:43;;;;;;;6.53;2.75;;;20.60;99.90;;;;;;5000771;28;20299;-92
2023/07/16 02:08:09;;;;;;;6.68;2.65;;;20.60;99.90;;;;;;5000964;28;20283;-93
2023/07/16 02:10:34;;;;;;;6.20;2.72;;;20.70;99.90;;;;;;5000486;28;20214;-93
2023/07/16 02:13:01;;;;;;;5.05;3.00;;;20.60;99.90;;;;;;5001250;28;20532;-93
2023/07/16 02:15:27;;;;;;;5.28;2.63;;;20.50;99.90;;;;;;5000928;28;20207;-94
2023/07/16 02:17:53;;;;;;;4.85;2.90;;;20.50;99.90;;;;;;5000793;28;20183;-94
2023/07/16 02:20:19;;;;;;;2.45;2.10;;;20.40;99.90;;;;;;5000482;28;20207;-93
2023/07/16 02:22:45;;;;;;;4.63;2.45;;;20.30;99.90;;;;;;5000871;28;20172;-93
2023/07/16 02:25:11;;;;;;;4.72;2.15;;;20.20;99.90;;;;;;5000768;28;20203;-91
2023/07/16 02:27:37;;;;;;;3.95;2.00;;;20.10;99.90;;;;;;5000853;28;20210;-93
2023/07/16 02:30:03;;;;;;;4.32;1.75;;;20.10;99.90;;;;;;5001095;28;20232;-93
2023/07/16 02:32:29;;;;;;;3.20;1.75;;;20.00;99.90;;;;;;4984506;28;20255;-93
2023/07/16 02:34:55;;;;;;;3.15;2.17;;;20.00;99.90;;;;;;5000290;28;20218;-91
2023/07/16 02:37:21;;;;;;;3.15;2.00;;;20.00;99.90;;;;;;5000021;28;20180;-94
2023/07/16 02:39:47;;;;;;;4.97;2.10;;;20.00;99.90;;;;;;5000395;28;20711;-96
2023/07/16 02:42:14;;;;;;;3.58;1.92;;;19.90;99.90;;;;;;5000698;28;20179;-93
2023/07/16 02:44:44;;;;;;;4.88;2.15;;;19.80;99.90;;;;;;4984704;28;20196;-94
2023/07/16 02:47:11;;;;;;;4.22;2.10;;;19.90;99.90;;;;;;5000247;28;20542;-94
2023/07/16 02:52:19;;;;;;;5.13;1.85;;;19.70;99.90;;;;;;5280415;23;20574;-89
2023/07/16 02:54:45;;;;;;;3.33;1.77;;;19.80;99.90;;;;;;4978480;28;20219;-91
2023/07/16 02:57:10;;;;;;;3.30;1.52;;;19.70;99.90;;;;;;4978437;28;20179;-92
2023/07/16 02:59:36;;;;;;;4.43;2.13;;;19.70;99.90;;;;;;4978566;28;20179;-94
2023/07/16 03:02:02;;;;;;;4.10;1.90;;;19.70;99.90;;;;;;4978260;28;20184;-94
2023/07/16 03:04:28;;;;;;;2.90;1.70;;;19.70;99.90;;;;;;4978235;28;20227;-94
2023/07/16 03:06:53;;;;;;;3.00;1.70;;;19.80;99.90;;;;;;4979020;28;20183;-95
2023/07/16 03:09:19;;;;;;;2.47;1.77;;;19.70;99.90;;;;;;4979073;28;20243;-94
2023/07/16 03:11:45;;;;;;;7.30;1.83;;;19.70;99.90;;;;;;4980677;28;20183;-93
2023/07/16 03:14:13;;;;;;;3.00;1.73;;;19.70;99.90;;;;;;4980171;28;20182;-94
2023/07/16 03:16:39;;;;;;;4.82;1.98;;;19.70;99.90;;;;;;4981149;28;20172;-94
2023/07/16 03:19:05;;;;;;;3.63;1.80;;;19.70;99.90;;;;;;4980225;28;20182;-93
2023/07/16 03:21:31;;;;;;;4.45;1.83;;;19.70;99.90;;;;;;4985919;28;20286;-94
2023/07/16 03:23:57;;;;;;;3.35;1.85;;;19.70;99.90;;;;;;4998368;28;20578;-94
2023/07/16 03:26:23;;;;;;;4.15;1.80;;;19.70;99.90;;;;;;4997692;28;20515;-94
2023/07/16 03:28:48;;;;;;;4.65;1.75;;;19.60;99.90;;;;;;4998172;28;20233;-93
2023/07/16 03:31:14;;;;;;;2.83;1.60;;;19.60;99.90;;;;;;4997503;28;20190;-93
2023/07/16 03:33:40;;;;;;;5.93;2.00;;;19.60;99.90;;;;;;4997341;28;20179;-94
2023/07/16 03:36:06;;;;;;;5.47;1.90;;;19.60;99.90;;;;;;4997295;28;20178;-94
2023/07/16 03:38:32;;;;;;;5.07;1.77;;;19.60;99.90;;;;;;4997182;28;20183;-93
2023/07/16 03:40:57;;;;;;;7.38;1.63;;;19.50;99.90;;;;;;4997451;28;20532;-93
2023/07/16 03:43:23;;;;;;;1.58;1.40;;;19.50;99.90;;;;;;4997918;28;20183;-93
2023/07/16 03:45:49;;;;;;;6.55;2.28;;;19.50;99.90;;;;;;5000356;28;20205;-92
2023/07/16 03:48:15;;;;;;;9.80;2.28;;;19.40;99.90;;;;;;4997382;28;20179;-94
2023/07/16 03:50:41;;;;;;;8.80;2.05;;;19.40;99.90;;;;;;4997115;28;20645;-91
2023/07/16 03:53:07;;;;;;;5.95;2.17;;;19.30;99.90;;;;;;4997062;28;20199;-93
2023/07/16 03:55:32;;;;;;;5.40;2.15;;;19.30;99.90;;;;;;4998030;28;20606;-91
2023/07/16 03:57:58;;;;;;;5.35;2.10;;;19.30;99.90;;;;;;4999740;28;20277;-92
2023/07/16 04:00:24;;;;;;;4.32;2.05;;;19.30;99.90;;;;;;5003579;28;20189;-94
2023/07/16 04:02:50;;;;;;;3.78;1.80;;;19.30;99.90;;;;;;5003844;28;20197;-94
2023/07/16 04:05:15;;;;;;;5.13;2.30;;;19.20;99.90;;;;;;5003513;28;20491;-94
2023/07/16 04:07:41;;;;;;;6.50;1.95;;;19.20;99.90;;;;;;5020805;28;20553;-94
2023/07/16 04:10:07;;;;;;;3.42;1.85;;;19.10;99.90;;;;;;5003465;28;20553;-94
2023/07/16 04:12:33;;;;;;;6.75;2.35;;;19.10;99.90;;;;;;5004429;28;20228;-92
2023/07/16 04:15:00;;;;;;;3.55;2.03;;;19.10;99.90;;;;;;5003654;28;20190;-93
2023/07/16 04:17:25;;;;;;;5.70;1.88;;;19.10;99.90;;;;;;5021009;28;20167;-93
2023/07/16 04:19:51;;;;;;;8.35;2.50;;;19.10;99.90;;;;;;5004228;28;20194;-92
2023/07/16 04:22:17;;;;;;;5.78;2.13;;;19.20;99.90;;;;;;4992788;28;20638;-90
2023/07/16 04:24:43;;;;;;;3.80;2.33;;;19.20;99.90;;;;;;4985107;28;20206;-91
2023/07/16 04:27:08;;;;;;;4.43;2.30;;;19.20;99.90;;;;;;4984002;28;20180;-92
2023/07/16 04:29:34;;;;;;;10.60;2.00;;;19.10;99.90;;;;;;4984191;28;20211;-92
2023/07/16 04:32:00;;;;;;;9.05;2.60;;;19.20;99.90;;;;;;4984018;28;20176;-92
2023/07/16 04:34:25;;;;;;;2.38;1.90;;;19.10;99.90;;;;;;4984178;28;20274;-92
2023/07/16 04:36:51;;;;;;;6.53;2.40;;;19.10;99.90;;;;;;4983805;28;20184;-93
2023/07/16 04:39:17;;;;;;;4.22;1.80;;;19.10;99.90;;;;;;4983984;28;20180;-94
2023/07/16 04:41:42;;;;;;;6.72;2.13;;;19.20;99.90;;;;;;4983709;28;20183;-93
2023/07/16 04:44:08;;;;;;;5.82;2.40;;;19.20;99.90;;;;;;4983859;28;20520;-89
2023/07/16 04:46:34;;;;;;;2.92;2.22;;;19.20;99.90;;;;;;4983754;28;20182;-89
2023/07/16 04:49:00;;;;;;;6.82;2.05;;;19.20;99.90;;;;;;4983577;28;20184;-89
2023/07/16 04:51:26;;;;;;;5.28;2.38;;;19.30;99.90;;;;;;4987680;28;20261;-90
2023/07/16 04:53:52;;;;;;;5.50;2.10;;;19.30;99.90;;;;;;5003015;28;20482;-90
2023/07/16 04:56:18;;;;;;;3.03;1.90;;;19.30;99.90;;;;;;5003449;28;20227;-89
2023/07/16 04:58:44;;;;;;;6.72;2.25;;;19.30;99.90;;;;;;5003374;28;20175;-89
2023/07/16 05:01:10;;;;;;;3.85;2.47;;;19.30;99.90;;;;;;5003224;28;20670;-89
2023/07/16 05:03:36;;;;;;;6.57;2.22;;;19.30;99.90;;;;;;5002569;28;20179;-88
2023/07/16 05:06:02;;;;;;;4.55;2.20;;;19.40;99.90;;;;;;5002916;28;20183;-91
2023/07/16 05:08:28;;;;;;;7.05;2.10;;;19.50;99.90;;;;;;5002912;28;20193;-88
2023/07/16 05:10:54;;;;;;;6.32;2.10;;;19.50;99.90;;;;;;5000192;28;20207;-91
2023/07/16 05:13:20;;;;;;;3.88;2.40;;;19.50;99.90;;;;;;5000205;28;20617;-89
2023/07/16 05:15:46;;;;;;;6.38;2.25;;;19.50;99.90;;;;;;4999811;28;20282;-88
2023/07/16 05:18:11;;;;;;;3.42;1.95;;;19.50;99.90;;;;;;4999946;28;20175;-90
2023/07/16 05:20:37;;;;;;;6.53;1.90;;;19.60;99.90;;;;;;4999569;28;20206;-90
2023/07/16 05:23:03;;;;;;;4.18;2.00;;;19.60;99.90;;;;;;4999516;28;20191;-88
2023/07/16 05:25:29;;;;;;;5.07;1.98;;;19.70;99.90;;;;;;4999743;28;20231;-88
2023/07/16 05:27:55;;;;;;;3.95;1.85;;;19.70;99.90;;;;;;4999646;28;20183;-89
2023/07/16 05:30:21;;;;;;;3.60;1.90;;;19.70;99.90;;;;;;4999722;28;20211;-89
2023/07/16 05:32:47;;;;;;;4.15;2.25;;;19.70;99.90;;;;;;4999450;28;20175;-89
2023/07/16 05:35:13;;;;;;;5.28;1.98;;;19.80;99.90;;;;;;4999378;28;20214;-87
2023/07/16 05:37:38;;;;;;;3.78;1.80;;;19.80;99.90;;;;;;4999469;28;20195;-90
2023/07/16 05:40:05;;;;;;;3.47;1.85;;;19.90;99.90;;;;;;4999321;28;20171;-90
2023/07/16 05:42:31;;;;;;;3.67;1.95;;;19.90;99.90;;;;;;4999264;28;20211;-88
2023/07/16 05:44:57;;;;;;;5.20;1.92;;;20.00;99.90;;;;;;4999383;28;20224;-90
2023/07/16 05:47:22;;;;;;;3.97;2.03;;;20.10;99.90;;;;;;5016501;28;20194;-90
2023/07/16 05:49:48;;;;;;;3.67;1.77;;;20.10;99.90;;;;;;4999157;28;20222;-92
2023/07/16 05:52:14;;;;;;;4.85;1.80;;;20.10;99.90;;;;;;4998972;28;20565;-91
2023/07/16 05:54:39;;;;;;;6.15;2.00;;;20.10;99.90;;;;;;5016672;28;20181;-91
2023/07/16 05:57:06;;;;;;;3.55;1.70;;;20.10;99.90;;;;;;4999460;28;20266;-89
2023/07/16 05:59:36;;;;;;;4.28;1.58;;;20.10;99.90;;;;;;4999301;28;20270;-92
2023/07/16 06:02:01;;;;;;;5.95;1.90;;;20.10;99.90;;;;;;4999360;28;20171;-91
2023/07/16 06:04:27;;;;;;;3.10;1.60;;;20.10;99.90;;;;;;4977380;28;20191;-92
2023/07/16 06:06:53;;;;;;;4.13;1.65;;;20.20;99.90;;;;;;4973990;28;20196;-91
2023/07/16 06:09:19;;;;;;;3.58;1.52;;;20.10;99.90;;;;;;4979483;28;20243;-92
2023/07/16 06:11:48;;;;;;;5.30;1.80;;;20.10;99.90;;;;;;4979532;28;20230;-94
2023/07/16 06:14:14;;;;;;;3.42;1.85;;;20.10;99.90;;;;;;4979295;28;20242;-91
2023/07/16 06:16:39;;;;;;;4.03;1.85;;;20.20;99.90;;;;;;4996717;28;20164;-90
2023/07/16 06:19:05;;;;;;;4.35;1.50;;;20.10;99.90;;;;;;4979747;28;20633;-89
2023/07/16 06:21:31;;;;;;;5.07;1.60;;;20.20;99.90;;;;;;4983870;28;20577;-94
2023/07/16 06:23:56;;;;;;;3.20;1.70;;;20.20;99.90;;;;;;5016200;28;20175;-90
2023/07/16 06:26:22;;;;;;;6.65;1.60;;;20.20;99.90;;;;;;4998616;28;20182;-93
2023/07/16 06:28:49;;;;;;;2.40;1.80;;;20.30;99.90;;;;;;4998511;28;20179;-92
2023/07/16 06:31:16;;;;;;;5.00;1.85;;;20.30;99.90;;;;;;4998469;28;20195;-89
2023/07/16 06:33:42;;;;;;;3.13;1.70;;;20.40;99.90;;;;;;4998393;28;21062;-91
2023/07/16 06:36:08;;;;;;;3.70;1.70;;;20.40;99.90;;;;;;4998501;28;20211;-93
2023/07/16 06:38:33;;;;;;;3.83;1.73;;;20.50;99.90;;;;;;4998587;28;20497;-91
2023/07/16 06:40:59;;;;;;;5.50;1.90;;;20.50;99.90;;;;;;4998445;28;20266;-91
2023/07/16 06:43:25;;;;;;;4.13;1.80;;;20.50;99.90;;;;;;4997590;28;20183;-89
2023/07/16 06:45:51;;;;;;;3.42;1.80;;;20.60;99.90;;;;;;4998108;28;20199;-90
2023/07/16 06:48:20;;;;;;;3.92;1.90;;;20.60;99.90;;;;;;4998249;28;20258;-92
2023/07/16 06:50:45;;;;;;;2.97;2.00;;;20.70;99.90;;;;;;4997659;28;20207;-91
2023/07/16 06:53:11;;;;;;;3.70;1.90;;;20.80;99.90;;;;;;5015442;28;20282;-91
2023/07/16 06:55:37;;;;;;;5.68;2.10;;;20.90;99.90;;;;;;4997783;28;20629;-89
2023/07/16 06:58:03;;;;;;;4.18;1.95;;;21.00;99.90;;;;;;4998150;28;20712;-92
2023/07/16 07:00:29;;;;;;;3.72;1.70;;;21.10;99.90;;;;;;4998106;28;20269;-92
2023/07/16 07:02:54;;;;;;;5.55;2.35;;;21.30;99.90;;;;;;4998014;28;20637;-87
2023/07/16 07:05:20;;;;;;;5.05;1.90;;;21.40;99.90;;;;;;4997991;28;20175;-89
2023/07/16 07:07:46;;;;;;;2.70;1.77;;;21.50;99.90;;;;;;5015042;28;20656;-87
2023/07/16 07:10:13;;;;;;;4.57;2.08;;;21.50;99.90;;;;;;4997440;28;20225;-89
2023/07/16 07:12:39;;;;;;;5.95;1.92;;;21.50;99.90;;;;;;4997845;28;20191;-86
2023/07/16 07:15:09;;;;;;;6.40;2.20;;;21.60;99.90;;;;;;4997517;28;20257;-89
2023/07/16 07:17:35;;;;;;;5.25;1.95;;;21.70;99.90;;;;;;4997801;28;20203;-89
2023/07/16 07:20:04;;;;;;;4.03;1.90;;;21.80;99.90;;;;;;4997506;28;20211;-90
2023/07/16 07:22:31;;;;;;;4.60;2.00;;;21.90;99.90;;;;;;4997061;28;20219;-88
2023/07/16 07:24:57;;;;;;;4.47;1.73;;;22.10;99.90;;;;;;4997725;28;20190;-90
2023/07/16 07:27:23;;;;;;;2.55;1.80;;;22.00;99.90;;;;;;4997264;28;20175;-88
2023/07/16 07:29:51;;;;;;;4.57;2.03;;;22.00;99.90;;;;;;4997098;28;20215;-89
2023/07/16 07:32:21;;;;;;;2.92;1.58;;;22.10;99.90;;;;;;4996994;28;20206;-91
2023/07/16 07:34:47;;;;;;;4.20;1.85;;;22.30;99.90;;;;;;4997374;28;20585;-90
2023/07/16 07:37:13;;;;;;;4.82;1.50;;;22.40;99.90;;;;;;4997379;28;20265;-93
2023/07/16 07:39:39;;;;;;;2.97;1.63;;;22.50;99.90;;;;;;4997121;28;20186;-93
2023/07/16 07:42:05;;;;;;;3.75;2.00;;;22.80;99.90;;;;;;4997297;28;20222;-89
2023/07/16 07:44:31;;;;;;;3.33;1.70;;;22.80;99.90;;;;;;4997292;28;20175;-89
2023/07/16 07:46:57;;;;;;;4.18;1.60;;;22.60;99.90;;;;;;4997166;28;20179;-88
2023/07/16 07:49:22;;;;;;;3.75;1.50;;;22.40;99.90;;;;;;4996955;28;20215;-87
2023/07/16 07:51:49;;;;;;;4.38;1.77;;;22.40;99.90;;;;;;4996818;28;20273;-86
2023/07/16 07:54:15;;;;;;;6.68;1.70;;;22.60;99.90;;;;;;4995557;28;20187;-91
2023/07/16 07:56:42;;;;;;;3.55;1.60;;;22.80;99.90;;;;;;4996850;28;20270;-89
2023/07/16 07:59:07;;;;;;;3.10;1.70;;;23.00;99.90;;;;;;4981324;28;20184;-86
2023/07/16 08:01:33;;;;;;;4.68;1.58;;;23.20;99.90;;;;;;4977710;28;20290;-90
2023/07/16 08:04:02;;;;;;;5.07;1.50;;;23.40;99.90;;;;;;4977853;28;20666;-94
2023/07/16 08:06:28;;;;;;;4.18;1.67;;;23.50;99.90;;;;;;4977347;28;20183;-89
2023/07/16 08:08:54;;;;;;;3.92;1.35;;;23.30;99.90;;;;;;4977822;28;20238;-93
2023/07/16 08:11:22;;;;;;;2.75;1.50;;;23.20;99.90;;;;;;4994873;28;20180;-90
2023/07/16 08:13:49;;;;;;;5.97;2.03;;;23.20;99.90;;;;;;4977629;28;20184;-91
2023/07/16 08:16:14;;;;;;;2.20;1.40;;;23.20;99.90;;;;;;4977863;28;20566;-91
2023/07/16 08:18:40;;;;;;;6.05;1.70;;;23.30;99.90;;;;;;4978113;28;20176;-92
2023/07/16 08:21:06;;;;;;;5.68;1.77;;;23.30;99.90;;;;;;4977243;28;20653;-90
2023/07/16 08:23:32;;;;;;;3.95;1.50;;;23.40;99.90;;;;;;4977704;28;20183;-91
2023/07/16 08:25:58;;;;;;;5.32;2.00;;;23.50;99.90;;;;;;4978852;28;20599;-87
2023/07/16 08:28:23;;;;;;;4.43;1.40;;;23.60;99.90;;;;;;4997164;28;20514;-91
2023/07/16 08:30:51;;;;;;;3.00;1.50;;;23.50;98.50;;;;;;5014399;28;20310;-89
2023/07/16 08:33:16;;;;;;;4.22;1.40;;;23.50;99.40;;;;;;4996943;28;20203;-85
2023/07/16 08:35:42;;;;;;;6.40;1.60;;;23.60;98.70;;;;;;4997032;28;20269;-86
2023/07/16 08:38:09;;;;;;;5.47;1.73;;;23.70;99.90;;;;;;4996995;28;20672;-86
2023/07/16 08:40:38;;;;;;;4.43;1.80;;;23.80;99.90;;;;;;4997111;28;20211;-90
2023/07/16 08:43:10;;;;;;;3.50;1.40;;;23.70;99.90;;;;;;4997375;28;20189;-86
2023/07/16 08:45:44;;;;;;;4.07;1.55;;;23.60;99.90;;;;;;5018445;28;20166;-88
2023/07/16 08:48:10;;;;;;;4.05;1.35;;;23.60;99.00;;;;;;4999195;28;20187;-88
2023/07/16 08:50:37;;;;;;;4.38;1.67;;;23.60;99.60;;;;;;4999781;28;20213;-86
2023/07/16 08:53:06;;;;;;;4.43;1.95;;;23.80;99.90;;;;;;5017453;28;20172;-86
2023/07/16 08:55:33;;;;;;;4.20;1.25;;;23.90;99.90;;;;;;5000408;28;20194;-87
2023/07/16 08:57:59;;;;;;;6.43;1.60;;;24.00;98.90;;;;;;5017947;28;20179;-87
2023/07/16 09:00:26;;;;;;;5.18;1.77;;;24.10;97.80;;;;;;5000467;28;20610;-85
2023/07/16 09:02:52;;;;;;;4.05;1.60;;;23.90;97.70;;;;;;4999805;28;20171;-85
2023/07/16 09:05:21;;;;;;;3.85;1.58;;;23.80;98.40;;;;;;5000834;28;20282;-87
2023/07/16 09:07:47;;;;;;;7.03;1.88;;;23.90;98.40;;;;;;5000228;28;20644;-89
2023/07/16 09:10:13;;;;;;;10.52;1.88;;;24.00;98.30;;;;;;5000253;28;20231;-86
2023/07/16 09:12:47;;;;;;;4.38;1.58;;;24.10;98.20;;;;;;4995084;28;20192;-87
2023/07/16 09:15:18;;;;;;;3.55;1.52;;;23.90;96.50;;;;;;4971864;28;20238;-88
2023/07/16 09:17:48;;;;;;;4.72;1.73;;;23.70;97.90;;;;;;4976768;28;20291;-88
2023/07/16 09:20:18;;;;;;;4.47;1.92;;;23.50;97.10;;;;;;4975971;28;20630;-90
2023/07/16 09:22:44;;;;;;;4.93;1.65;;;23.30;97.10;;;;;;4968703;28;20185;-89
2023/07/16 09:25:10;;;;;;;4.35;1.83;;;23.20;99.10;;;;;;4966372;28;20192;-90
2023/07/16 09:27:36;;;;;;;4.57;1.50;;;23.30;97.50;;;;;;4979615;28;20634;-87
2023/07/16 09:30:06;;;;;;;8.45;1.77;;;23.40;97.50;;;;;;4978978;28;20272;-90
2023/07/16 09:32:42;;;;;;;3.45;1.70;;;23.60;99.20;;;;;;4978971;28;20181;-86
2023/07/16 09:35:11;;;;;;;4.35;1.90;;;23.70;96.60;;;;;;4978330;28;20176;-88
2023/07/16 09:37:38;;;;;;;3.72;1.60;;;23.70;96.60;;;;;;4977782;28;20192;-93
2023/07/16 09:40:09;;;;;;;5.88;1.58;;;23.80;96.70;;;;;;4979022;28;20222;-90
2023/07/16 09:42:43;;;;;;;5.53;1.83;;;23.80;94.80;;;;;;4979246;28;20173;-89
2023/07/16 09:45:22;;;;;;;6.75;1.50;;;23.90;96.90;;;;;;4978078;28;20258;-87
2023/07/16 09:47:48;;;;;;;3.75;1.58;;;23.80;94.10;;;;;;4995459;28;20252;-92
2023/07/16 09:50:14;;;;;;;5.47;1.88;;;23.70;97.80;;;;;;4999187;28;20301;-88
2023/07/16 09:52:39;;;;;;;3.75;1.60;;;23.90;97.40;;;;;;4999022;28;20223;-90
2023/07/16 09:55:07;;;;;;;4.15;1.40;;;24.20;96.60;;;;;;4999006;28;20190;-89
2023/07/16 09:57:41;;;;;;;5.78;1.60;;;24.40;95.40;;;;;;4998440;28;20629;-89
2023/07/16 10:00:12;;;;;;;5.60;1.90;;;24.20;97.20;;;;;;4999371;28;20187;-91
2023/07/16 10:02:38;;;;;;;5.03;1.40;;;24.20;97.70;;;;;;4998834;28;20185;-92
2023/07/16 10:05:26;;;;;;;5.13;1.75;;;24.10;96.30;;;;;;4999145;28;20179;-90
2023/07/16 10:08:00;;;;;;;4.88;1.50;;;24.00;95.70;;;;;;4999124;28;20182;-91
2023/07/16 10:10:39;;;;;;;3.80;1.60;;;24.00;94.70;;;;;;4999573;28;20214;-93
2023/07/16 10:13:06;;;;;;;3.45;1.60;;;24.10;96.00;;;;;;4999281;28;20175;-92
2023/07/16 10:15:32;;;;;;;3.65;1.52;;;24.30;95.00;;;;;;4999503;28;20210;-91
2023/07/16 10:17:57;;;;;;;7.28;1.60;;;24.50;93.40;;;;;;4983563;28;20215;-93
2023/07/16 10:20:33;;;;;;;5.18;1.50;;;24.50;93.90;;;;;;4980699;28;20520;-94
2023/07/16 10:23:11;;;;;;;5.38;1.77;;;24.50;92.50;;;;;;4979591;28;20211;-89
2023/07/16 10:25:37;;;;;;;2.90;1.70;;;24.70;95.20;;;;;;4979569;28;20737;-91
2023/07/16 10:28:03;;;;;;;3.40;1.38;;;24.80;94.60;;;;;;4979614;28;20208;-90
2023/07/16 10:30:29;;;;;;;4.45;1.63;;;24.70;93.70;;;;;;4979495;28;20258;-96
2023/07/16 10:33:00;;;;;;;2.88;1.70;;;24.40;95.40;;;;;;4979919;28;20190;-95
2023/07/16 10:35:26;;;;;;;5.15;1.60;;;24.10;94.20;;;;;;4979839;28;20168;-90
2023/07/16 10:37:51;;;;;;;5.68;1.83;;;24.20;94.00;;;;;;4979237;28;20184;-95
2023/07/16 10:40:17;;;;;;;5.45;2.03;;;24.30;95.70;;;;;;4979623;28;20168;-91
2023/07/16 10:42:43;;;;;;;4.97;1.80;;;24.40;95.60;;;;;;4979832;28;20619;-92
2023/07/16 10:45:10;;;;;;;5.53;1.60;;;24.40;93.10;;;;;;4979679;28;20645;-92
2023/07/16 10:47:37;;;;;;;8.63;1.70;;;24.20;92.90;;;;;;4979718;28;20218;-91
2023/07/16 10:50:06;;;;;;;3.05;1.63;;;24.40;94.20;;;;;;4979199;28;20219;-91
2023/07/16 10:52:32;;;;;;;3.15;1.67;;;24.40;92.30;;;;;;4975916;28;20248;-91
2023/07/16 10:54:58;;;;;;;4.53;1.73;;;24.50;93.10;;;;;;4977189;28;20180;-90
2023/07/16 10:57:27;;;;;;;4.82;1.63;;;24.80;93.30;;;;;;4975657;28;20208;-90
2023/07/16 10:59:56;;;;;;;7.18;1.95;;;25.10;94.00;;;;;;4976034;28;20184;-93
2023/07/16 11:02:23;;;;;;;6.18;1.73;;;25.20;92.20;;;;;;4976395;28;20172;-91
2023/07/16 11:04:53;;;;;;;7.07;1.70;;;25.40;91.90;;;;;;4976238;28;20282;-91
2023/07/16 11:07:19;;;;;;;7.47;1.90;;;25.40;94.60;;;;;;4976348;28;20185;-92
2023/07/16 11:09:46;;;;;;;4.10;1.55;;;25.40;91.80;;;;;;4975579;28;20209;-90
2023/07/16 11:12:14;;;;;;;6.03;1.58;;;25.80;94.40;;;;;;4976996;28;20200;-93
2023/07/16 11:14:45;;;;;;;4.70;1.40;;;25.90;90.00;;;;;;4976025;28;20212;-92
2023/07/16 11:17:14;;;;;;;5.32;1.60;;;25.80;91.00;;;;;;4967418;28;20282;-94
2023/07/16 11:19:44;;;;;;;3.40;1.98;;;25.90;91.00;;;;;;4957337;28;20263;-92
2023/07/16 11:22:10;;;;;;;4.40;1.85;;;26.00;91.50;;;;;;4958079;28;20661;-94
2023/07/16 11:24:47;;;;;;;3.72;1.50;;;26.00;91.60;;;;;;4964645;28;20197;-94
2023/07/16 11:27:18;;;;;;;4.40;1.88;;;26.00;89.10;;;;;;4959998;28;20195;-95
2023/07/16 11:29:58;;;;;;;3.50;1.65;;;26.00;90.20;;;;;;4956122;28;20219;-93
2023/07/16 11:32:30;;;;;;;3.60;1.60;;;26.00;90.40;;;;;;4967460;28;20520;-92
2023/07/16 11:34:56;;;;;;;3.60;1.80;;;26.10;89.90;;;;;;4973633;28;20283;-90
2023/07/16 11:37:25;;;;;;;4.65;1.50;;;26.30;90.80;;;;;;4967520;28;20640;-90
2023/07/16 11:39:54;;;;;;;4.45;1.52;;;26.20;89.80;;;;;;4957286;28;20208;-94
2023/07/16 11:42:37;;;;;;;6.53;1.80;;;26.30;89.40;;;;;;4953214;28;20189;-93
2023/07/16 11:45:04;;;;;;;3.80;1.70;;;26.30;88.40;;;;;;4966664;28;20185;-93
2023/07/16 11:47:30;;;;;;;3.42;1.63;;;26.30;87.90;;;;;;4960083;28;20193;-90
2023/07/16 11:49:57;;;;;;;5.55;1.83;;;26.40;90.40;;;;;;4965404;28;20211;-92
2023/07/16 11:52:30;;;;;;;4.15;1.63;;;26.50;90.00;;;;;;4961714;28;20283;-89
2023/07/16 11:55:03;;;;;;;4.97;1.88;;;26.60;90.30;;;;;;4963143;28;20186;-91
2023/07/16 11:57:29;;;;;;;3.00;1.52;;;26.80;90.50;;;;;;4963416;28;20204;-92
2023/07/16 11:59:55;;;;;;;3.22;1.70;;;26.80;90.60;;;;;;4969752;28;20188;-91
2023/07/16 12:02:22;;;;;;;6.53;1.52;;;26.80;87.00;;;;;;4963853;28;20192;-93
2023/07/16 12:04:50;;;;;;;5.20;1.63;;;26.80;90.70;;;;;;4964246;28;20181;-94
2023/07/16 12:07:34;;;;;;;3.53;1.70;;;26.80;91.00;;;;;;4964204;28;20225;-92
2023/07/16 12:10:03;;;;;;;2.70;1.52;;;26.80;90.00;;;;;;4971436;28;20713;-92
2023/07/16 12:12:29;;;;;;;4.32;1.60;;;26.90;87.80;;;;;;4958428;28;20209;-88
2023/07/16 12:14:54;;;;;;;2.58;1.60;;;26.90;85.30;;;;;;4962631;28;20291;-92
2023/07/16 12:17:20;;;;;;;6.25;1.77;;;26.60;89.50;;;;;;4958153;28;20280;-91
2023/07/16 12:19:47;;;;;;;4.75;1.60;;;26.50;88.40;;;;;;4960544;28;20224;-89
2023/07/16 12:22:15;;;;;;;4.15;1.67;;;26.70;91.50;;;;;;4958512;28;20189;-89
2023/07/16 12:24:41;;;;;;;5.25;2.00;;;26.80;87.50;;;;;;4975950;28;20191;-89
2023/07/16 12:27:07;;;;;;;4.80;1.70;;;26.90;87.50;;;;;;4961661;28;20185;-93
2023/07/16 12:29:33;;;;;;;2.65;1.45;;;26.90;87.20;;;;;;4969326;28;20260;-92
2023/07/16 12:31:59;;;;;;;4.13;1.67;;;27.10;87.40;;;;;;4962749;28;20247;-90
2023/07/16 12:34:25;;;;;;;2.72;1.85;;;27.20;87.20;;;;;;4963092;28;20313;-89
2023/07/16 12:36:51;;;;;;;3.63;1.52;;;27.20;87.80;;;;;;4959494;28;20811;-95
2023/07/16 12:39:17;;;;;;;3.03;1.80;;;27.10;82.80;;;;;;4959356;29;20699;-93
2023/07/16 12:41:46;;;;;;;3.90;1.73;;;26.80;84.30;;;;;;4958994;29;20634;-92
2023/07/16 12:44:12;;;;;;;5.35;1.83;;;26.40;84.70;;;;;;4959270;29;20181;-95
2023/07/16 12:46:38;;;;;;;6.80;1.95;;;26.40;84.10;;;;;;4971051;28;20375;-94
2023/07/16 12:49:04;;;;;;;4.28;1.70;;;26.30;84.60;;;;;;4998614;28;20651;-91
2023/07/16 12:51:30;;;;;;;3.45;1.88;;;26.20;85.50;;;;;;4998377;28;20293;-89